Time;durP1;ratioP1;P1;durP2;ratioP2;P2;SDS_P1;SDS_P2;PMS_P1;PMS_P2;Temp;Humidity;BMP_temperature;BMP_pressure;BME280_temperature;BME280_humidity;BME280_pressure;Samples;Min_cycle;Max_cycle;Signal;HPM_P1;HPM_P2
2022/09/16 00:00:20;;;;;;;4.43;2.10;;;15.30;99.90;;;;;;5024924;28;20437;-74
2022/09/16 00:03:05;;;;;;;9.93;2.27;;;15.30;99.90;;;;;;5021480;28;20464;-73
2022/09/16 00:05:52;;;;;;;4.20;2.30;;;15.30;99.90;;;;;;5062152;22;20457;-78
2022/09/16 00:08:39;;;;;;;6.43;2.07;;;15.40;99.90;;;;;;5050352;28;20768;-77
2022/09/16 00:11:25;;;;;;;11.03;2.60;;;15.40;99.90;;;;;;5062024;28;20420;-77
2022/09/16 00:14:11;;;;;;;6.00;2.00;;;15.40;99.90;;;;;;5051787;28;20463;-77
2022/09/16 00:16:56;;;;;;;5.23;2.00;;;15.50;99.90;;;;;;5031533;28;20419;-77
2022/09/16 00:19:42;;;;;;;6.40;2.40;;;15.50;99.90;;;;;;5032409;28;20428;-77
2022/09/16 00:22:28;;;;;;;6.73;2.30;;;15.50;99.90;;;;;;5028636;28;20796;-77
2022/09/16 00:25:15;;;;;;;14.20;2.13;;;15.50;99.90;;;;;;5040640;28;20459;-77
2022/09/16 00:28:01;;;;;;;5.23;2.43;;;15.50;99.90;;;;;;5034399;28;20463;-77
2022/09/16 00:30:47;;;;;;;7.80;2.83;;;15.40;99.90;;;;;;5033405;28;20426;-77
2022/09/16 00:33:32;;;;;;;6.67;2.20;;;15.40;99.90;;;;;;5028533;28;20518;-77
2022/09/16 00:36:20;;;;;;;10.53;2.23;;;15.40;99.90;;;;;;5035963;28;20582;-77
2022/09/16 00:39:05;;;;;;;5.40;2.63;;;15.30;99.90;;;;;;5038242;28;20411;-77
2022/09/16 00:41:52;;;;;;;5.63;2.43;;;15.40;99.90;;;;;;5034662;28;20543;-77
2022/09/16 00:45:01;;;;;;;10.53;2.37;;;15.30;99.90;;;;;;5034524;28;20516;-77
2022/09/16 00:47:51;;;;;;;5.07;2.30;;;15.30;99.90;;;;;;5035803;28;21055;-77
2022/09/16 00:50:40;;;;;;;7.77;2.20;;;15.30;99.90;;;;;;5037050;28;20402;-77
2022/09/16 00:53:29;;;;;;;4.47;2.10;;;15.40;99.90;;;;;;5035306;28;20442;-77
2022/09/16 00:56:18;;;;;;;8.70;3.20;;;15.30;99.90;;;;;;5039403;28;20780;-77
2022/09/16 00:59:09;;;;;;;8.70;2.27;;;15.30;99.90;;;;;;5036160;28;20955;-77
2022/09/16 01:01:56;;;;;;;9.80;2.20;;;15.30;99.90;;;;;;5028302;28;20560;-77
2022/09/16 01:04:47;;;;;;;6.33;2.00;;;15.20;99.90;;;;;;5027952;28;20442;-77
2022/09/16 01:07:39;;;;;;;5.20;2.50;;;15.20;99.90;;;;;;5031190;28;20547;-77
2022/09/16 01:10:26;;;;;;;5.90;2.13;;;15.10;99.90;;;;;;5029922;28;20525;-77
2022/09/16 01:13:14;;;;;;;7.60;2.50;;;15.20;99.90;;;;;;5028213;28;20447;-77
2022/09/16 01:16:09;;;;;;;12.47;2.43;;;15.20;99.90;;;;;;5040645;28;20417;-77
2022/09/16 01:19:05;;;;;;;4.13;1.90;;;15.10;99.90;;;;;;5032708;28;20867;-77
2022/09/16 01:21:59;;;;;;;4.53;1.80;;;15.20;99.90;;;;;;5039169;28;21059;-77
2022/09/16 01:24:54;;;;;;;9.70;1.80;;;15.20;99.90;;;;;;5028295;28;20430;-77
2022/09/16 01:28:03;;;;;;;3.83;2.10;;;15.20;99.90;;;;;;5023676;28;20456;-77
2022/09/16 01:31:12;;;;;;;6.57;1.93;;;15.10;99.90;;;;;;5027529;28;20415;-77
2022/09/16 01:34:02;;;;;;;5.67;1.97;;;15.10;99.90;;;;;;5023483;28;20468;-77
2022/09/16 01:36:55;;;;;;;4.57;2.00;;;15.10;99.90;;;;;;5028973;28;20440;-77
2022/09/16 01:39:48;;;;;;;5.87;1.97;;;15.00;99.90;;;;;;5026957;28;21069;-76
2022/09/16 01:42:40;;;;;;;5.87;2.53;;;15.00;99.90;;;;;;5021244;28;20541;-77
2022/09/16 01:45:33;;;;;;;10.63;2.23;;;14.90;99.90;;;;;;5025598;28;20829;-77
2022/09/16 01:48:28;;;;;;;5.47;2.30;;;15.00;99.90;;;;;;5025434;28;20511;-77
2022/09/16 01:51:21;;;;;;;8.80;1.80;;;15.00;99.90;;;;;;5024554;28;20440;-76
2022/09/16 01:54:12;;;;;;;6.00;1.97;;;15.10;99.90;;;;;;5024392;28;20476;-77
2022/09/16 01:57:03;;;;;;;19.87;2.50;;;15.10;99.90;;;;;;5024688;28;20439;-78
2022/09/16 01:59:53;;;;;;;8.67;2.30;;;15.10;99.90;;;;;;5026286;28;20441;-77
2022/09/16 02:02:44;;;;;;;4.97;2.70;;;15.10;99.90;;;;;;5021545;28;20503;-77
2022/09/16 02:05:36;;;;;;;6.60;2.10;;;15.10;99.90;;;;;;5022106;28;20562;-77
2022/09/16 02:08:27;;;;;;;6.03;2.20;;;15.10;99.90;;;;;;5027799;28;20441;-77
2022/09/16 02:11:16;;;;;;;6.17;1.93;;;15.00;99.90;;;;;;5025013;28;20434;-77
2022/09/16 02:14:07;;;;;;;3.43;1.80;;;15.00;99.90;;;;;;5025733;28;20533;-77
2022/09/16 02:16:56;;;;;;;2.70;1.83;;;15.10;99.90;;;;;;5030789;28;20986;-76
2022/09/16 02:19:46;;;;;;;4.20;2.30;;;15.20;99.90;;;;;;5027483;28;20467;-77
2022/09/16 02:22:36;;;;;;;11.70;2.03;;;15.20;99.90;;;;;;5032077;28;20476;-77
2022/09/16 02:25:23;;;;;;;11.17;2.10;;;15.30;99.90;;;;;;5023106;28;20493;-77
2022/09/16 02:28:13;;;;;;;6.60;1.90;;;15.20;99.90;;;;;;5027307;28;20620;-77
2022/09/16 02:31:05;;;;;;;4.53;2.23;;;15.00;99.90;;;;;;5029135;28;20567;-77
2022/09/16 02:33:55;;;;;;;8.43;2.90;;;15.00;99.90;;;;;;5020668;28;21022;-77
2022/09/16 02:36:44;;;;;;;2.80;2.23;;;15.00;99.90;;;;;;5031416;28;20512;-77
2022/09/16 02:39:36;;;;;;;3.90;2.10;;;14.90;99.90;;;;;;5030781;28;20587;-78
2022/09/16 02:42:22;;;;;;;7.87;2.60;;;14.80;99.90;;;;;;5023242;28;20453;-76
2022/09/16 02:45:08;;;;;;;7.77;2.20;;;14.90;99.90;;;;;;5027949;28;20446;-77
2022/09/16 02:48:02;;;;;;;3.90;1.97;;;15.00;99.90;;;;;;5030987;28;20457;-77
2022/09/16 02:50:53;;;;;;;3.90;2.40;;;15.00;99.90;;;;;;5026858;28;20456;-77
2022/09/16 02:53:46;;;;;;;6.37;2.17;;;15.00;99.90;;;;;;5021917;28;20522;-77
2022/09/16 02:56:36;;;;;;;6.23;2.27;;;15.00;99.90;;;;;;5028075;28;20471;-77
2022/09/16 02:59:24;;;;;;;11.37;2.37;;;15.00;99.90;;;;;;5026914;28;20440;-76
2022/09/16 03:02:10;;;;;;;5.67;2.20;;;14.90;99.90;;;;;;5026802;28;20913;-77
2022/09/16 03:04:56;;;;;;;7.73;2.17;;;14.90;99.90;;;;;;5025379;28;20546;-77
2022/09/16 03:07:42;;;;;;;7.60;3.03;;;14.90;99.90;;;;;;5024828;28;20927;-77
2022/09/16 03:10:33;;;;;;;5.00;2.13;;;14.90;99.90;;;;;;5035565;28;20486;-77
2022/09/16 03:13:28;;;;;;;3.50;2.30;;;15.00;99.90;;;;;;5024647;28;20423;-77
2022/09/16 03:16:23;;;;;;;4.87;1.83;;;14.90;99.90;;;;;;5028283;28;20450;-77
2022/09/16 03:19:21;;;;;;;5.20;2.50;;;14.90;99.90;;;;;;5027369;28;20501;-77
2022/09/16 03:22:13;;;;;;;4.53;1.80;;;14.90;99.90;;;;;;5022220;28;20432;-77
2022/09/16 03:25:06;;;;;;;8.60;1.87;;;14.90;99.90;;;;;;5026073;28;20976;-77
2022/09/16 03:27:57;;;;;;;5.73;1.80;;;15.00;99.90;;;;;;5027991;28;20419;-78
2022/09/16 03:30:52;;;;;;;4.13;1.43;;;14.90;99.90;;;;;;5025445;28;20423;-77
2022/09/16 03:33:46;;;;;;;6.23;1.93;;;15.00;99.90;;;;;;5027257;28;20447;-77
2022/09/16 03:36:36;;;;;;;10.47;2.00;;;15.00;99.90;;;;;;5027036;28;20578;-77
2022/09/16 03:39:22;;;;;;;3.87;1.80;;;15.10;99.90;;;;;;5033219;28;20488;-77
2022/09/16 03:42:10;;;;;;;9.50;1.90;;;15.00;99.90;;;;;;5023386;28;20506;-77
2022/09/16 03:44:56;;;;;;;7.30;2.13;;;15.00;99.90;;;;;;5024814;28;20434;-77
2022/09/16 03:47:43;;;;;;;15.70;1.70;;;15.00;99.90;;;;;;5028242;28;20844;-77
2022/09/16 03:50:28;;;;;;;6.73;2.00;;;15.00;99.90;;;;;;5032062;28;20436;-77
2022/09/16 03:53:14;;;;;;;12.27;2.20;;;15.00;99.90;;;;;;5027799;28;21014;-77
2022/09/16 03:55:59;;;;;;;4.20;1.60;;;15.00;99.90;;;;;;5032340;28;20678;-76
2022/09/16 03:58:48;;;;;;;5.07;1.50;;;14.90;99.90;;;;;;5026273;28;20426;-77
2022/09/16 04:01:33;;;;;;;7.90;1.80;;;14.90;99.90;;;;;;5020590;28;20427;-77
2022/09/16 04:04:20;;;;;;;7.07;1.63;;;14.80;99.90;;;;;;5027809;28;20417;-77
2022/09/16 04:07:06;;;;;;;5.43;1.43;;;14.80;99.90;;;;;;5029931;28;20470;-76
2022/09/16 04:09:52;;;;;;;7.10;1.73;;;14.80;99.90;;;;;;5027982;28;20509;-77
2022/09/16 04:12:37;;;;;;;8.50;2.23;;;14.70;99.90;;;;;;5025301;28;20443;-76
2022/09/16 04:15:23;;;;;;;8.20;2.07;;;14.70;99.90;;;;;;5027121;28;20453;-77
2022/09/16 04:18:09;;;;;;;5.33;1.70;;;14.60;99.90;;;;;;5025889;28;20481;-77
2022/09/16 04:20:58;;;;;;;3.40;1.70;;;14.60;99.90;;;;;;5028706;28;20472;-77
2022/09/16 04:23:44;;;;;;;5.30;1.80;;;14.60;99.90;;;;;;5027444;28;20476;-78
2022/09/16 04:26:29;;;;;;;5.07;1.43;;;14.60;99.90;;;;;;5033683;28;20565;-77
2022/09/16 04:29:16;;;;;;;5.37;1.73;;;14.60;99.90;;;;;;5025792;28;20576;-77
2022/09/16 04:32:01;;;;;;;3.20;1.60;;;14.70;99.90;;;;;;5018155;28;20445;-78
2022/09/16 04:34:47;;;;;;;7.87;1.83;;;14.60;99.90;;;;;;5023377;28;20450;-77
2022/09/16 04:37:34;;;;;;;2.43;1.60;;;14.70;99.90;;;;;;5029188;28;20452;-77
2022/09/16 04:40:20;;;;;;;4.97;1.60;;;14.70;99.90;;;;;;5027510;28;20578;-77
2022/09/16 04:43:06;;;;;;;5.87;1.70;;;14.60;99.90;;;;;;5026675;28;20607;-77
2022/09/16 04:45:51;;;;;;;7.57;1.90;;;14.60;99.90;;;;;;5026070;28;20478;-77
2022/09/16 04:48:37;;;;;;;5.97;1.80;;;14.60;99.90;;;;;;5023801;28;20444;-77
2022/09/16 04:51:24;;;;;;;7.70;2.17;;;14.50;99.90;;;;;;5018520;28;20527;-77
2022/09/16 04:54:11;;;;;;;6.47;2.30;;;14.60;99.90;;;;;;5029032;28;20461;-77
2022/09/16 04:56:57;;;;;;;5.33;1.77;;;14.50;99.90;;;;;;5023734;28;20465;-77
2022/09/16 04:59:43;;;;;;;5.87;1.97;;;14.40;99.90;;;;;;5028072;28;20522;-77
2022/09/16 05:02:29;;;;;;;4.23;1.60;;;14.30;99.90;;;;;;5024074;28;20916;-77
2022/09/16 05:05:16;;;;;;;11.57;2.20;;;14.30;99.90;;;;;;5025920;28;20568;-76
2022/09/16 05:08:02;;;;;;;3.57;1.70;;;14.30;99.90;;;;;;5027290;28;21085;-77
2022/09/16 05:10:49;;;;;;;3.60;1.70;;;14.20;99.90;;;;;;5023921;28;20418;-77
2022/09/16 05:13:34;;;;;;;7.50;2.00;;;14.30;99.90;;;;;;5021851;28;20498;-77
2022/09/16 05:16:22;;;;;;;8.73;1.87;;;14.30;99.90;;;;;;5023219;28;20443;-77
2022/09/16 05:19:08;;;;;;;7.53;1.70;;;14.30;99.90;;;;;;5023493;28;20452;-77
2022/09/16 05:21:53;;;;;;;6.33;1.70;;;14.30;99.90;;;;;;5022386;28;20949;-76
2022/09/16 05:24:39;;;;;;;7.03;2.13;;;14.20;99.90;;;;;;5025116;28;21023;-77
2022/09/16 05:27:30;;;;;;;9.00;1.47;;;14.10;99.90;;;;;;5030579;28;20939;-77
2022/09/16 05:30:16;;;;;;;16.70;1.87;;;14.10;99.90;;;;;;5023436;28;20710;-77
2022/09/16 05:33:01;;;;;;;6.67;1.97;;;14.20;99.90;;;;;;5023856;28;20439;-77
2022/09/16 05:35:47;;;;;;;7.60;2.30;;;14.20;99.90;;;;;;5027660;28;20451;-78
2022/09/16 05:38:33;;;;;;;7.13;1.70;;;14.20;99.90;;;;;;5026329;28;20447;-76
2022/09/16 05:41:19;;;;;;;9.37;2.00;;;14.30;99.90;;;;;;5020836;28;20439;-77
2022/09/16 05:44:06;;;;;;;2.73;1.67;;;14.40;99.90;;;;;;5025512;28;20558;-77
2022/09/16 05:46:52;;;;;;;14.70;2.27;;;14.50;99.90;;;;;;5027373;28;21036;-77
2022/09/16 05:49:37;;;;;;;3.97;1.53;;;14.60;99.90;;;;;;5029058;28;20423;-77
2022/09/16 05:52:24;;;;;;;4.33;1.57;;;14.60;99.90;;;;;;5028232;28;20530;-75
2022/09/16 05:55:09;;;;;;;10.80;1.70;;;14.70;99.90;;;;;;5029700;28;20449;-77
2022/09/16 05:57:55;;;;;;;4.37;1.70;;;14.60;99.90;;;;;;5032875;28;20899;-77
2022/09/16 06:00:42;;;;;;;15.93;2.90;;;14.60;99.90;;;;;;5023059;28;21081;-77
2022/09/16 06:03:29;;;;;;;7.07;1.70;;;14.50;99.90;;;;;;5021423;28;21195;-77
2022/09/16 06:06:20;;;;;;;5.23;1.87;;;14.50;99.90;;;;;;5065299;22;20814;-74
2022/09/16 06:09:08;;;;;;;3.40;1.47;;;14.60;99.90;;;;;;5071853;28;20895;-74
2022/09/16 06:11:54;;;;;;;8.53;1.87;;;14.60;99.90;;;;;;5066876;28;20425;-75
2022/09/16 06:14:39;;;;;;;11.43;2.77;;;14.70;99.90;;;;;;5069298;28;20555;-74
2022/09/16 06:17:26;;;;;;;4.10;1.43;;;14.70;99.90;;;;;;5068909;28;20451;-74
2022/09/16 06:20:13;;;;;;;5.20;1.83;;;14.80;99.90;;;;;;5060530;28;20425;-75
2022/09/16 06:22:59;;;;;;;6.57;2.23;;;14.90;99.90;;;;;;5065810;28;20811;-74
2022/09/16 06:25:45;;;;;;;4.33;2.03;;;14.90;99.90;;;;;;5065937;28;20470;-74
2022/09/16 06:28:31;;;;;;;7.00;1.97;;;15.00;99.90;;;;;;5067729;28;20451;-74
2022/09/16 06:31:18;;;;;;;6.57;2.40;;;15.10;99.90;;;;;;5063869;28;20437;-75
2022/09/16 06:34:06;;;;;;;5.80;1.93;;;15.20;99.90;;;;;;5062645;28;20593;-74
2022/09/16 06:36:52;;;;;;;6.93;1.53;;;15.20;99.90;;;;;;5064260;28;20465;-74
2022/09/16 06:39:38;;;;;;;5.23;2.33;;;15.20;99.90;;;;;;5060731;28;20636;-74
2022/09/16 06:42:23;;;;;;;7.13;2.30;;;15.20;99.90;;;;;;5057044;28;20425;-72
2022/09/16 06:45:10;;;;;;;4.47;1.60;;;15.30;99.90;;;;;;5065681;28;20465;-74
2022/09/16 06:48:00;;;;;;;8.93;2.20;;;15.30;99.90;;;;;;5062161;28;20443;-71
2022/09/16 06:50:46;;;;;;;6.50;2.27;;;15.40;99.90;;;;;;5054712;28;20414;-74
2022/09/16 06:53:33;;;;;;;11.13;3.50;;;15.50;99.90;;;;;;5060821;28;20455;-74
2022/09/16 06:56:21;;;;;;;6.40;3.13;;;15.60;99.90;;;;;;5059788;28;20449;-74
2022/09/16 06:59:07;;;;;;;8.13;2.10;;;15.60;99.90;;;;;;5063398;28;20510;-73
2022/09/16 07:01:53;;;;;;;9.03;2.73;;;15.70;99.90;;;;;;5061318;28;20446;-75
2022/09/16 07:04:39;;;;;;;20.03;3.30;;;15.70;99.90;;;;;;5055440;28;20654;-74
2022/09/16 07:07:30;;;;;;;7.80;2.90;;;15.60;99.90;;;;;;5059331;28;20492;-75
2022/09/16 07:10:15;;;;;;;7.50;2.60;;;15.50;99.90;;;;;;5062603;28;20411;-71
2022/09/16 07:13:01;;;;;;;7.13;2.60;;;15.50;99.90;;;;;;5065086;28;20449;-73
2022/09/16 07:15:47;;;;;;;11.90;4.30;;;15.40;99.90;;;;;;5064865;28;20490;-73
2022/09/16 07:18:33;;;;;;;4.87;1.93;;;15.40;99.90;;;;;;5056077;28;20762;-73
2022/09/16 07:21:20;;;;;;;8.50;2.80;;;15.40;99.90;;;;;;5059013;28;20892;-72
2022/09/16 07:24:09;;;;;;;18.43;3.40;;;15.40;99.90;;;;;;5060562;28;20492;-72
2022/09/16 07:26:55;;;;;;;7.23;2.37;;;15.40;99.90;;;;;;5064215;28;20445;-73
2022/09/16 07:29:40;;;;;;;8.20;3.67;;;15.30;99.90;;;;;;5058255;28;20412;-73
2022/09/16 07:32:26;;;;;;;4.60;2.40;;;15.30;99.90;;;;;;5066984;28;20499;-73
2022/09/16 07:35:12;;;;;;;6.43;2.33;;;15.40;99.90;;;;;;5059405;28;20457;-72
2022/09/16 07:37:57;;;;;;;6.83;2.30;;;15.40;99.90;;;;;;5059717;28;20479;-72
2022/09/16 07:40:44;;;;;;;8.70;3.03;;;15.40;99.90;;;;;;5057664;28;20475;-72
2022/09/16 07:43:30;;;;;;;7.67;2.10;;;15.50;99.90;;;;;;5067327;28;20544;-72
2022/09/16 07:46:18;;;;;;;5.13;2.67;;;15.40;99.90;;;;;;5061271;28;20999;-72
2022/09/16 07:49:06;;;;;;;10.93;2.87;;;15.50;99.90;;;;;;5067758;28;20961;-72
2022/09/16 07:51:51;;;;;;;11.00;2.60;;;15.50;99.90;;;;;;5064136;28;21128;-72
2022/09/16 07:54:37;;;;;;;5.00;2.53;;;15.50;99.90;;;;;;5071758;28;20512;-72
2022/09/16 07:57:24;;;;;;;5.70;2.90;;;15.40;99.90;;;;;;5061800;28;21136;-71
2022/09/16 08:00:12;;;;;;;8.27;2.10;;;15.40;99.90;;;;;;5058423;28;20525;-72
2022/09/16 08:02:57;;;;;;;5.20;2.30;;;15.50;99.90;;;;;;5053182;28;20776;-71
2022/09/16 08:05:43;;;;;;;3.60;1.47;;;15.50;99.90;;;;;;5057142;28;20847;-73
2022/09/16 08:08:29;;;;;;;5.53;1.53;;;15.50;99.90;;;;;;5056907;28;20442;-72
2022/09/16 08:11:15;;;;;;;6.63;2.43;;;15.50;99.90;;;;;;5050608;28;21808;-73
2022/09/16 08:14:02;;;;;;;4.33;1.80;;;15.50;99.90;;;;;;5056841;28;20446;-73
2022/09/16 08:16:50;;;;;;;6.10;1.80;;;15.60;99.90;;;;;;5052113;28;20454;-70
2022/09/16 08:19:37;;;;;;;8.40;1.73;;;15.60;99.90;;;;;;5058945;28;26069;-73
2022/09/16 08:22:24;;;;;;;3.90;1.70;;;15.60;99.90;;;;;;5056848;28;20599;-73
2022/09/16 08:25:10;;;;;;;5.43;1.50;;;15.60;99.90;;;;;;5050550;28;20475;-71
2022/09/16 08:27:55;;;;;;;3.70;1.60;;;15.70;99.90;;;;;;5055042;28;21989;-73
2022/09/16 08:30:43;;;;;;;4.77;1.40;;;15.70;99.90;;;;;;5050457;28;20438;-73
2022/09/16 08:33:29;;;;;;;4.27;1.60;;;15.60;99.90;;;;;;5053620;28;21021;-73
2022/09/16 08:36:18;;;;;;;5.83;1.57;;;15.60;99.90;;;;;;5055244;28;20580;-72
2022/09/16 08:39:04;;;;;;;4.60;1.63;;;15.60;99.90;;;;;;5053849;28;20438;-72
2022/09/16 08:42:29;;;;;;;2.83;1.57;;;15.70;99.90;;;;;;5052832;28;20447;-71
2022/09/16 08:45:22;;;;;;;5.90;1.90;;;15.70;99.90;;;;;;5053467;28;20445;-72
2022/09/16 08:48:22;;;;;;;18.97;2.27;;;15.60;99.90;;;;;;5059029;28;20449;-73
2022/09/16 08:51:12;;;;;;;5.00;1.90;;;15.60;99.90;;;;;;5057533;28;20484;-73
2022/09/16 08:54:01;;;;;;;6.80;2.30;;;15.60;99.90;;;;;;5063277;28;20922;-71
2022/09/16 08:56:48;;;;;;;6.17;2.40;;;15.60;99.90;;;;;;5058717;28;20478;-73
2022/09/16 08:59:39;;;;;;;5.00;1.73;;;15.60;99.90;;;;;;5051693;28;20433;-69
2022/09/16 09:02:37;;;;;;;7.17;2.00;;;15.80;99.90;;;;;;5058631;28;20456;-73
2022/09/16 09:05:31;;;;;;;9.70;2.70;;;16.00;99.90;;;;;;5056260;28;20442;-72
2022/09/16 09:08:32;;;;;;;4.57;2.30;;;16.20;99.90;;;;;;5058017;28;20462;-73
2022/09/16 09:11:27;;;;;;;8.07;1.90;;;16.30;99.90;;;;;;5050086;28;20443;-73
2022/09/16 09:14:31;;;;;;;5.20;1.63;;;16.40;99.90;;;;;;5056992;28;20816;-71
2022/09/16 09:17:27;;;;;;;6.80;1.73;;;16.30;99.90;;;;;;5057603;28;21055;-72
2022/09/16 09:20:22;;;;;;;6.90;2.57;;;16.30;97.50;;;;;;5052126;28;20421;-70
2022/09/16 09:23:24;;;;;;;10.50;1.70;;;16.10;99.90;;;;;;5057731;28;20450;-73
2022/09/16 09:26:15;;;;;;;2.10;1.10;;;16.30;99.90;;;;;;5055038;28;20450;-72
2022/09/16 09:29:26;;;;;;;6.80;1.90;;;16.40;91.80;;;;;;5050816;28;20496;-73
2022/09/16 09:32:22;;;;;;;3.90;1.80;;;16.50;93.90;;;;;;5057488;28;20433;-72
2022/09/16 09:35:28;;;;;;;13.60;2.37;;;16.60;94.60;;;;;;5057938;28;20444;-72
2022/09/16 09:38:37;;;;;;;3.83;1.40;;;16.70;95.50;;;;;;5052815;28;20433;-70
2022/09/16 09:41:29;;;;;;;4.70;1.50;;;16.70;88.10;;;;;;5056495;28;20492;-73
2022/09/16 09:44:46;;;;;;;4.87;1.30;;;16.80;85.80;;;;;;5059655;28;20424;-70
2022/09/16 09:47:37;;;;;;;6.00;1.60;;;16.50;81.40;;;;;;5051506;28;20592;-72
2022/09/16 09:50:28;;;;;;;13.00;2.00;;;16.40;82.80;;;;;;5057492;28;20422;-75
2022/09/16 09:53:22;;;;;;;3.03;1.20;;;16.40;76.80;;;;;;5059414;28;20436;-72
2022/09/16 09:56:18;;;;;;;3.40;1.27;;;16.40;76.90;;;;;;5057174;28;20473;-71
2022/09/16 09:59:12;;;;;;;2.73;1.23;;;16.50;84.70;;;;;;5054136;28;20821;-73
2022/09/16 10:02:00;;;;;;;6.80;1.27;;;16.90;89.20;;;;;;5054562;28;21024;-73
2022/09/16 10:04:46;;;;;;;2.30;1.27;;;17.20;72.30;;;;;;5057203;28;20426;-71
2022/09/16 10:07:32;;;;;;;4.10;0.90;;;17.30;66.80;;;;;;5056966;28;20592;-73
2022/09/16 10:10:22;;;;;;;3.77;1.17;;;17.40;57.00;;;;;;5054850;28;20420;-69
2022/09/16 10:13:11;;;;;;;7.97;1.83;;;17.20;50.80;;;;;;5055076;28;20429;-72
2022/09/16 10:16:09;;;;;;;6.97;1.10;;;17.20;53.20;;;;;;5056002;28;20606;-72
2022/09/16 10:19:03;;;;;;;4.87;1.10;;;17.10;55.90;;;;;;5056285;28;20463;-72
2022/09/16 10:21:52;;;;;;;8.03;1.30;;;17.20;58.50;;;;;;5050090;28;20457;-69
2022/09/16 10:24:39;;;;;;;3.23;1.23;;;17.40;60.30;;;;;;5050691;28;20437;-72
2022/09/16 10:27:27;;;;;;;5.37;1.50;;;17.60;60.70;;;;;;5055263;28;20512;-72
2022/09/16 10:30:17;;;;;;;3.67;1.37;;;17.80;61.40;;;;;;5053519;28;20450;-72
2022/09/16 10:33:05;;;;;;;3.90;1.13;;;17.70;57.10;;;;;;5058892;28;20442;-72
2022/09/16 10:35:56;;;;;;;7.57;1.23;;;17.90;59.30;;;;;;5061406;28;20477;-71
2022/09/16 10:38:44;;;;;;;3.33;1.23;;;18.00;57.80;;;;;;5059848;28;20439;-72
2022/09/16 10:41:34;;;;;;;2.43;1.03;;;18.20;61.00;;;;;;5063829;28;20496;-73
2022/09/16 10:44:25;;;;;;;5.13;1.10;;;18.00;52.80;;;;;;5055579;28;20458;-71
2022/09/16 10:47:20;;;;;;;5.73;1.40;;;18.10;54.50;;;;;;5062209;28;20520;-74
2022/09/16 10:50:07;;;;;;;7.73;1.43;;;18.00;57.40;;;;;;5057639;28;20433;-74
2022/09/16 10:52:54;;;;;;;6.00;1.67;;;17.90;57.60;;;;;;5062605;28;21041;-70
2022/09/16 10:55:39;;;;;;;6.13;1.83;;;18.10;53.70;;;;;;5057480;28;20456;-74
2022/09/16 10:58:25;;;;;;;2.67;1.00;;;18.20;51.40;;;;;;5053993;28;20443;-73
2022/09/16 11:01:29;;;;;;;4.63;1.10;;;18.20;53.30;;;;;;5056511;28;20451;-74
2022/09/16 11:04:39;;;;;;;3.30;1.27;;;18.20;55.80;;;;;;5054726;28;20426;-72
2022/09/16 11:07:38;;;;;;;4.33;1.57;;;18.10;56.40;;;;;;5063176;28;20958;-72
2022/09/16 11:10:29;;;;;;;8.70;2.03;;;18.20;57.00;;;;;;5056333;28;20437;-74
2022/09/16 11:13:35;;;;;;;7.13;1.27;;;18.30;56.70;;;;;;5060947;28;20417;-75
2022/09/16 11:16:30;;;;;;;3.80;1.33;;;18.30;47.30;;;;;;5059060;28;20470;-73
2022/09/16 11:19:25;;;;;;;4.70;1.57;;;18.40;53.50;;;;;;5058658;28;20671;-74
2022/09/16 11:22:23;;;;;;;2.57;1.13;;;18.30;51.50;;;;;;5060987;28;20919;-74
2022/09/16 11:25:41;;;;;;;9.13;1.40;;;18.40;55.20;;;;;;5052069;28;20478;-72
2022/09/16 11:28:53;;;;;;;6.07;1.10;;;18.40;48.30;;;;;;5059131;28;20451;-71
2022/09/16 11:31:50;;;;;;;2.17;1.17;;;18.50;53.10;;;;;;5060592;28;20459;-74
2022/09/16 11:34:49;;;;;;;2.87;0.97;;;18.80;52.80;;;;;;5057858;28;20458;-74
2022/09/16 11:37:45;;;;;;;3.27;0.93;;;18.90;48.10;;;;;;5055027;28;20483;-73
2022/09/16 11:40:42;;;;;;;2.53;0.80;;;19.00;48.60;;;;;;5063089;28;20978;-74
2022/09/16 11:43:56;;;;;;;5.77;1.10;;;19.20;47.50;;;;;;5057575;28;20533;-73
2022/09/16 11:46:52;;;;;;;5.33;1.20;;;19.00;47.40;;;;;;5058027;28;20489;-74
2022/09/16 11:49:54;;;;;;;2.60;0.80;;;18.70;48.50;;;;;;5063588;28;20466;-73
2022/09/16 11:52:56;;;;;;;7.43;0.90;;;18.40;46.00;;;;;;5058651;28;20447;-74
2022/09/16 11:55:51;;;;;;;3.23;1.30;;;18.20;52.00;;;;;;5059417;28;20469;-74
2022/09/16 11:58:41;;;;;;;2.77;1.40;;;18.00;52.80;;;;;;5052481;28;20489;-71
2022/09/16 12:01:32;;;;;;;4.67;0.73;;;17.80;55.60;;;;;;5055812;28;20780;-75
2022/09/16 12:04:25;;;;;;;3.63;1.27;;;17.60;59.20;;;;;;5054443;28;20496;-75
2022/09/16 12:07:17;;;;;;;2.50;0.77;;;17.60;74.40;;;;;;5075592;22;20506;-78
2022/09/16 12:10:12;;;;;;;4.00;1.20;;;17.20;73.40;;;;;;5039437;28;20538;-77
2022/09/16 12:13:04;;;;;;;3.43;0.80;;;17.10;73.80;;;;;;5040708;28;20459;-78
2022/09/16 12:15:53;;;;;;;3.37;1.10;;;17.00;84.70;;;;;;5041834;28;20445;-77
2022/09/16 12:18:42;;;;;;;1.47;0.70;;;16.90;78.40;;;;;;5018627;28;20506;-77
2022/09/16 12:21:32;;;;;;;3.03;1.00;;;16.90;83.50;;;;;;5023440;28;20445;-77
2022/09/16 12:24:23;;;;;;;2.37;0.70;;;17.00;88.20;;;;;;5021900;28;20977;-78
2022/09/16 12:27:20;;;;;;;4.37;0.83;;;17.00;87.80;;;;;;5020567;28;20522;-77
2022/09/16 12:30:13;;;;;;;3.53;0.67;;;17.20;80.10;;;;;;5022485;28;20445;-77
2022/09/16 12:33:06;;;;;;;5.13;1.83;;;17.20;72.30;;;;;;5019349;28;20499;-77
2022/09/16 12:35:57;;;;;;;2.77;0.80;;;17.10;70.00;;;;;;5018145;28;20592;-77
2022/09/16 12:38:43;;;;;;;1.70;0.60;;;17.00;72.20;;;;;;5017161;28;20473;-76
2022/09/16 12:42:00;;;;;;;1.50;0.70;;;17.00;70.30;;;;;;5023797;28;21048;-77
2022/09/16 12:45:01;;;;;;;1.57;0.60;;;17.00;75.80;;;;;;5024858;28;20459;-78
2022/09/16 12:48:02;;;;;;;1.83;0.70;;;17.00;73.70;;;;;;5025029;28;20535;-77
2022/09/16 12:50:59;;;;;;;2.70;0.80;;;17.20;83.60;;;;;;5023406;28;20418;-77
2022/09/16 12:54:02;;;;;;;2.97;0.83;;;17.30;72.00;;;;;;5028638;28;20441;-77
2022/09/16 12:57:06;;;;;;;3.13;1.20;;;17.30;72.40;;;;;;5028010;28;20494;-77
2022/09/16 13:00:09;;;;;;;2.00;1.00;;;17.30;72.90;;;;;;5030081;28;20494;-78
2022/09/16 13:02:59;;;;;;;5.30;1.10;;;17.30;70.60;;;;;;5036931;28;20394;-77
2022/09/16 13:05:47;;;;;;;3.00;0.70;;;17.40;67.50;;;;;;5029046;28;20917;-77
2022/09/16 13:08:34;;;;;;;3.63;0.80;;;17.40;60.00;;;;;;5027030;28;20461;-77
2022/09/16 13:11:23;;;;;;;4.50;1.10;;;17.60;56.20;;;;;;5040208;28;20578;-77
2022/09/16 13:14:20;;;;;;;4.90;0.90;;;18.00;53.10;;;;;;5024426;28;20423;-77
2022/09/16 13:17:11;;;;;;;2.47;0.70;;;18.00;46.90;;;;;;5015452;28;20454;-77
2022/09/16 13:20:05;;;;;;;2.30;1.00;;;18.00;47.30;;;;;;5033998;28;20471;-78
2022/09/16 13:23:04;;;;;;;5.10;0.70;;;18.00;47.60;;;;;;5043233;28;20416;-78
2022/09/16 13:25:54;;;;;;;1.77;0.80;;;17.90;52.90;;;;;;5033027;28;20511;-77
2022/09/16 13:28:42;;;;;;;3.07;1.00;;;17.70;49.90;;;;;;5031477;28;20958;-77
2022/09/16 13:31:30;;;;;;;3.53;1.00;;;17.80;53.80;;;;;;5026739;28;20423;-77
2022/09/16 13:34:19;;;;;;;3.37;1.20;;;17.90;55.40;;;;;;5033499;28;20456;-78
2022/09/16 13:37:15;;;;;;;5.30;0.90;;;17.80;52.00;;;;;;5030656;28;20484;-78
2022/09/16 13:40:18;;;;;;;2.60;0.80;;;17.70;57.80;;;;;;5045492;28;20439;-77
2022/09/16 13:43:12;;;;;;;3.60;0.90;;;17.60;51.30;;;;;;5031100;28;20432;-77
2022/09/16 13:46:07;;;;;;;4.43;1.10;;;17.40;51.80;;;;;;5035328;28;20407;-77
2022/09/16 13:48:57;;;;;;;4.30;1.03;;;17.30;53.40;;;;;;5031345;28;20424;-77
2022/09/16 13:51:46;;;;;;;1.97;0.83;;;17.30;57.80;;;;;;5034290;28;20458;-78
2022/09/16 13:54:37;;;;;;;6.30;1.37;;;17.20;63.80;;;;;;5020100;28;20448;-77
2022/09/16 13:57:57;;;;;;;2.27;1.03;;;16.80;82.90;;;;;;5029055;28;20546;-78
2022/09/16 14:00:50;;;;;;;3.10;1.30;;;16.20;99.90;;;;;;5029979;28;20437;-78
2022/09/16 14:03:50;;;;;;;2.97;1.20;;;15.90;99.90;;;;;;5028736;28;20579;-77
2022/09/16 14:07:04;;;;;;;2.67;1.10;;;15.60;99.90;;;;;;5028449;28;20830;-77
2022/09/16 14:10:01;;;;;;;2.67;1.03;;;15.30;99.90;;;;;;5034235;28;20403;-76
2022/09/16 14:12:57;;;;;;;2.30;1.00;;;15.10;99.90;;;;;;5032120;28;20808;-77
2022/09/16 14:15:46;;;;;;;5.30;1.37;;;15.20;99.90;;;;;;5024070;28;20451;-77
2022/09/16 14:18:34;;;;;;;3.30;1.20;;;15.20;99.90;;;;;;5030982;28;20579;-77
2022/09/16 14:21:22;;;;;;;3.70;1.40;;;15.40;99.90;;;;;;5037466;28;20452;-78
2022/09/16 14:24:20;;;;;;;3.40;1.63;;;15.50;99.90;;;;;;5035632;28;20504;-77
2022/09/16 14:27:06;;;;;;;2.80;1.30;;;15.70;99.90;;;;;;5037790;28;20969;-78
2022/09/16 14:29:57;;;;;;;4.50;1.23;;;15.90;99.90;;;;;;5032155;28;20516;-78
2022/09/16 14:32:43;;;;;;;2.33;1.10;;;16.20;99.90;;;;;;5030428;28;20436;-77
2022/09/16 14:35:29;;;;;;;3.10;1.30;;;16.30;99.90;;;;;;5027860;28;21167;-77
2022/09/16 14:38:18;;;;;;;2.57;1.17;;;16.30;99.90;;;;;;5027499;28;20565;-77
2022/09/16 14:41:07;;;;;;;5.50;1.30;;;16.30;99.90;;;;;;5038411;28;20498;-77
2022/09/16 14:43:56;;;;;;;4.07;1.47;;;16.40;99.90;;;;;;5033289;28;20556;-75
2022/09/16 14:46:44;;;;;;;3.00;1.10;;;16.40;99.90;;;;;;5033702;28;20535;-76